createdAt,value
2022-09-30T00:01:23.108Z,10.65
2022-09-30T00:03:49.743Z,10.23
2022-09-30T00:06:16.446Z,10.00
2022-09-30T00:08:43.396Z,9.95
2022-09-30T00:11:13.973Z,12.07
2022-09-30T00:13:41.023Z,9.90
2022-09-30T00:16:09.795Z,11.77
2022-09-30T00:18:37.589Z,9.32
2022-09-30T00:21:05.507Z,11.32
2022-09-30T00:23:32.592Z,11.15
2022-09-30T00:26:01.889Z,11.35
2022-09-30T00:28:29.486Z,9.50
2022-09-30T00:31:05.252Z,11.55
2022-09-30T00:33:32.798Z,10.52
2022-09-30T00:35:59.469Z,10.23
2022-09-30T00:38:26.421Z,12.13
2022-09-30T00:40:53.637Z,10.48
2022-09-30T00:43:39.193Z,12.38
2022-09-30T00:46:06.396Z,11.07
2022-09-30T00:48:38.492Z,11.18
2022-09-30T00:51:07.581Z,12.02
2022-09-30T00:53:58.855Z,11.65
2022-09-30T00:56:29.451Z,12.35
2022-09-30T00:59:10.265Z,12.30
2022-09-30T01:01:40.369Z,12.73
2022-09-30T01:04:12.649Z,12.32
2022-09-30T01:06:40.059Z,10.95
2022-09-30T01:09:07.056Z,13.18
2022-09-30T01:11:34.252Z,10.73
2022-09-30T01:14:05.653Z,10.93
2022-09-30T01:16:45.971Z,11.63
2022-09-30T01:22:10.331Z,11.40
2022-09-30T01:25:07.145Z,11.68
2022-09-30T01:28:01.766Z,11.63
2022-09-30T01:30:59.142Z,10.57
2022-09-30T01:33:53.559Z,9.75
2022-09-30T01:36:48.931Z,9.98
2022-09-30T01:39:25.400Z,10.18
2022-09-30T01:42:10.110Z,11.30
2022-09-30T01:44:48.673Z,12.05
2022-09-30T01:47:41.793Z,11.00
2022-09-30T01:50:43.277Z,11.82
2022-09-30T01:53:39.815Z,9.73
2022-09-30T01:56:16.041Z,12.05
2022-09-30T01:58:47.529Z,9.38
2022-09-30T02:01:22.356Z,9.82
2022-09-30T02:03:55.733Z,12.38
2022-09-30T02:06:28.553Z,11.65
2022-09-30T02:08:59.929Z,9.68
2022-09-30T02:11:29.838Z,13.50
2022-09-30T02:14:07.624Z,11.32
2022-09-30T02:16:48.626Z,11.10
2022-09-30T02:19:37.076Z,12.05
2022-09-30T02:22:26.937Z,10.48
2022-09-30T02:25:00.653Z,11.43
2022-09-30T02:27:42.223Z,10.27
2022-09-30T02:30:12.048Z,8.40
2022-09-30T02:32:46.364Z,10.32
2022-09-30T02:35:21.347Z,11.98
2022-09-30T02:38:11.178Z,11.35
2022-09-30T02:40:45.252Z,11.07
2022-09-30T02:43:11.992Z,9.90
2022-09-30T02:46:03.155Z,10.77
2022-09-30T02:49:03.999Z,9.77
2022-09-30T02:51:45.280Z,9.60
2022-09-30T02:54:34.720Z,9.02
2022-09-30T02:57:39.910Z,10.80
2022-09-30T03:00:12.488Z,8.93
2022-09-30T03:02:40.644Z,11.32
2022-09-30T03:05:08.295Z,12.05
2022-09-30T03:07:36.424Z,11.35
2022-09-30T03:10:13.372Z,11.48
2022-09-30T03:13:02.118Z,10.27
2022-09-30T03:16:21.706Z,11.13
2022-09-30T03:19:14.686Z,10.27
2022-09-30T03:22:19.287Z,10.65
2022-09-30T03:25:23.346Z,12.15
2022-09-30T03:28:25.324Z,11.90
2022-09-30T03:31:24.120Z,11.80
2022-09-30T03:33:58.824Z,10.02
2022-09-30T03:36:30.469Z,12.65
2022-09-30T03:39:13.671Z,10.07
2022-09-30T03:42:07.597Z,13.80
2022-09-30T03:44:57.470Z,11.63
2022-09-30T03:47:26.567Z,13.05
2022-09-30T03:50:00.003Z,12.65
2022-09-30T03:52:29.829Z,13.93
2022-09-30T03:55:00.511Z,13.80
2022-09-30T03:57:30.433Z,12.75
2022-09-30T03:59:58.051Z,13.73
2022-09-30T04:02:26.192Z,13.18
2022-09-30T04:04:53.021Z,11.43
2022-09-30T04:07:19.940Z,12.38
2022-09-30T04:09:46.679Z,15.00
2022-09-30T04:12:13.859Z,14.85
2022-09-30T04:14:40.461Z,14.35
2022-09-30T04:17:07.308Z,12.52
2022-09-30T04:19:38.197Z,14.65
2022-09-30T04:22:04.863Z,16.38
2022-09-30T04:24:31.498Z,13.63
2022-09-30T04:26:58.341Z,16.13
2022-09-30T04:29:25.341Z,13.13
2022-09-30T04:31:51.972Z,12.00
2022-09-30T04:34:18.744Z,12.05
2022-09-30T04:36:45.381Z,12.85
2022-09-30T04:39:11.967Z,12.70
2022-09-30T04:41:38.696Z,13.75
2022-09-30T04:44:06.397Z,12.40
2022-09-30T04:46:36.953Z,10.02
2022-09-30T04:49:08.771Z,14.07
2022-09-30T04:51:36.459Z,14.05
2022-09-30T04:54:03.237Z,13.35
2022-09-30T04:56:30.032Z,11.02
2022-09-30T04:58:56.739Z,13.13
2022-09-30T05:01:23.465Z,11.70
2022-09-30T05:03:50.757Z,11.82
2022-09-30T05:06:17.788Z,11.15
2022-09-30T05:08:46.527Z,15.77
2022-09-30T05:11:21.047Z,12.00
2022-09-30T05:13:48.861Z,11.80
2022-09-30T05:16:16.734Z,12.85
2022-09-30T05:18:46.119Z,15.73
2022-09-30T05:21:14.903Z,13.07
2022-09-30T05:23:41.689Z,14.30
2022-09-30T05:26:11.961Z,16.42
2022-09-30T05:28:39.584Z,13.85
2022-09-30T05:31:06.524Z,14.18
2022-09-30T05:33:34.139Z,17.23
2022-09-30T05:36:03.816Z,14.13
2022-09-30T05:38:30.649Z,14.95
2022-09-30T05:40:57.502Z,16.17
2022-09-30T05:43:24.202Z,15.35
2022-09-30T05:45:55.937Z,14.85
2022-09-30T05:48:24.080Z,13.45
2022-09-30T05:50:57.597Z,17.67
2022-09-30T05:53:24.718Z,14.63
2022-09-30T05:55:51.832Z,14.85
2022-09-30T05:58:19.017Z,16.20
2022-09-30T06:00:47.804Z,20.90
2022-09-30T06:03:15.877Z,14.57
2022-09-30T06:05:42.626Z,17.30
2022-09-30T06:08:10.313Z,13.18
2022-09-30T06:10:40.106Z,14.75
2022-09-30T06:13:07.332Z,15.30
2022-09-30T06:15:33.941Z,12.98
2022-09-30T06:18:00.692Z,16.67
2022-09-30T06:20:27.353Z,15.38
2022-09-30T06:22:54.600Z,18.27
2022-09-30T06:25:22.321Z,17.65
2022-09-30T06:27:50.244Z,17.85
2022-09-30T06:30:17.048Z,18.63
2022-09-30T06:32:43.990Z,20.17
2022-09-30T06:35:10.950Z,20.00
2022-09-30T06:37:38.670Z,18.00
2022-09-30T06:40:06.476Z,20.08
2022-09-30T06:42:33.549Z,22.42
2022-09-30T06:45:00.452Z,24.92
2022-09-30T06:47:27.253Z,24.40
2022-09-30T06:49:58.494Z,29.50
2022-09-30T06:52:26.689Z,24.33
2022-09-30T06:54:56.637Z,26.10
2022-09-30T06:57:26.655Z,29.65
2022-09-30T06:59:54.498Z,30.95
2022-09-30T07:02:21.904Z,30.10
2022-09-30T07:04:48.738Z,33.45
2022-09-30T07:07:15.421Z,32.72
2022-09-30T07:09:43.213Z,40.25
2022-09-30T07:12:10.067Z,35.55
2022-09-30T07:14:37.224Z,33.38
2022-09-30T07:17:05.443Z,38.53
2022-09-30T07:19:34.172Z,35.45
2022-09-30T07:22:21.518Z,33.75
2022-09-30T07:24:48.141Z,40.95
2022-09-30T07:27:14.807Z,32.85
2022-09-30T07:30:07.055Z,33.15
2022-09-30T07:32:28.561Z,39.67
2022-09-30T07:34:55.408Z,28.90
2022-09-30T07:37:23.936Z,28.83
2022-09-30T07:39:50.589Z,33.35
2022-09-30T07:42:22.963Z,35.42
2022-09-30T07:44:52.023Z,29.70
2022-09-30T07:47:19.567Z,29.90
2022-09-30T07:49:47.481Z,25.63
2022-09-30T07:52:14.770Z,29.33
2022-09-30T07:54:46.682Z,26.00
2022-09-30T07:57:17.064Z,27.65
2022-09-30T07:59:43.894Z,27.75
2022-09-30T08:02:19.087Z,29.27
2022-09-30T08:04:46.554Z,25.67
2022-09-30T08:07:15.109Z,23.90
2022-09-30T08:09:42.017Z,25.70
2022-09-30T08:12:10.076Z,25.20
2022-09-30T08:14:36.691Z,23.00
2022-09-30T08:17:03.272Z,23.15
2022-09-30T08:19:31.196Z,23.77
2022-09-30T08:21:58.145Z,22.42
2022-09-30T08:24:26.494Z,20.35
2022-09-30T08:26:53.830Z,21.35
2022-09-30T08:29:42.680Z,20.40
2022-09-30T08:32:07.750Z,19.52
2022-09-30T08:34:35.793Z,21.67
2022-09-30T08:37:09.138Z,16.60
2022-09-30T08:39:36.802Z,15.68
2022-09-30T08:42:48.942Z,23.40
2022-09-30T08:47:54.984Z,16.80
2022-09-30T08:50:47.990Z,13.32
2022-09-30T08:53:30.222Z,17.48
2022-09-30T08:56:02.508Z,13.23
2022-09-30T08:58:32.489Z,14.80
2022-09-30T09:01:32.579Z,12.60
2022-09-30T09:04:01.549Z,11.80
2022-09-30T09:06:42.640Z,12.77
2022-09-30T09:09:24.355Z,15.73
2022-09-30T09:12:05.786Z,11.90
2022-09-30T09:14:58.300Z,14.75
2022-09-30T09:18:21.489Z,12.05
2022-09-30T09:20:57.844Z,11.13
2022-09-30T09:23:26.090Z,10.60
2022-09-30T09:25:55.115Z,10.68
2022-09-30T09:28:42.410Z,10.95
2022-09-30T09:31:17.180Z,9.23
2022-09-30T09:33:44.106Z,8.88
2022-09-30T09:36:26.737Z,9.63
2022-09-30T09:39:01.761Z,9.02
2022-09-30T09:41:56.493Z,9.43
2022-09-30T09:44:30.440Z,6.68
2022-09-30T09:47:06.564Z,6.63
2022-09-30T09:49:35.189Z,6.63
2022-09-30T09:52:13.959Z,6.07
2022-09-30T09:54:43.192Z,8.10
2022-09-30T09:57:12.137Z,6.80
2022-09-30T10:00:26.253Z,6.40
2022-09-30T10:03:13.077Z,7.90
2022-09-30T10:05:39.976Z,6.22
2022-09-30T10:08:22.736Z,6.53
2022-09-30T10:10:55.908Z,7.32
2022-09-30T10:13:29.641Z,5.70
2022-09-30T10:15:59.027Z,5.35
2022-09-30T10:18:36.069Z,4.47
2022-09-30T10:21:07.794Z,7.32
2022-09-30T10:23:38.902Z,5.20
2022-09-30T10:26:14.951Z,7.65
2022-09-30T10:28:54.827Z,4.82
2022-09-30T10:31:31.492Z,4.88
2022-09-30T10:34:29.664Z,4.97
2022-09-30T10:36:59.032Z,3.92
2022-09-30T10:39:37.896Z,3.93
2022-09-30T10:42:16.465Z,5.63
2022-09-30T10:44:44.986Z,3.65
2022-09-30T10:47:17.644Z,4.05
2022-09-30T10:50:05.469Z,4.70
2022-09-30T10:52:38.511Z,4.55
2022-09-30T10:55:25.932Z,4.53
2022-09-30T10:57:54.717Z,5.18
2022-09-30T11:00:23.767Z,3.88
2022-09-30T11:03:16.834Z,7.35
2022-09-30T11:05:45.380Z,5.43
2022-09-30T11:08:36.160Z,3.92
2022-09-30T11:11:10.453Z,4.90
2022-09-30T11:17:06.310Z,4.75
2022-09-30T11:19:45.454Z,4.30
2022-09-30T11:22:20.679Z,3.72
2022-09-30T11:24:50.421Z,4.90
2022-09-30T11:27:53.937Z,3.90
2022-09-30T11:31:06.824Z,4.15
2022-09-30T11:33:48.463Z,4.45
2022-09-30T11:36:33.776Z,3.17
2022-09-30T11:39:50.269Z,3.25
2022-09-30T11:42:47.581Z,3.42
2022-09-30T11:45:31.470Z,2.50
2022-09-30T11:48:15.412Z,4.47
2022-09-30T11:51:07.651Z,3.13
2022-09-30T11:53:46.703Z,4.18
2022-09-30T11:56:33.490Z,3.25
2022-09-30T11:59:04.146Z,4.65
2022-09-30T12:01:42.118Z,2.72
2022-09-30T12:04:15.649Z,2.92
2022-09-30T12:07:04.078Z,3.97
2022-09-30T12:09:37.305Z,3.35
2022-09-30T12:12:15.987Z,3.63
2022-09-30T12:15:05.800Z,3.60
2022-09-30T12:18:01.618Z,6.40
2022-09-30T12:20:30.822Z,4.78
2022-09-30T12:23:21.640Z,3.00
2022-09-30T12:26:07.162Z,4.93
2022-09-30T12:29:01.125Z,4.47
2022-09-30T12:31:47.440Z,3.55
2022-09-30T12:34:51.617Z,4.18
2022-09-30T12:37:37.867Z,3.00
2022-09-30T12:40:19.932Z,2.72
2022-09-30T12:43:00.598Z,2.75
2022-09-30T12:46:07.109Z,4.50
2022-09-30T12:48:40.682Z,2.47
2022-09-30T12:51:07.972Z,2.58
2022-09-30T12:53:40.201Z,4.90
2022-09-30T12:56:13.409Z,2.75
2022-09-30T12:58:49.137Z,2.22
2022-09-30T13:01:39.991Z,5.03
2022-09-30T13:04:06.600Z,4.18
2022-09-30T13:06:45.289Z,3.15
2022-09-30T13:09:11.846Z,3.42
2022-09-30T13:12:11.562Z,3.42
2022-09-30T13:17:36.236Z,7.25
2022-09-30T13:20:22.932Z,2.63
2022-09-30T13:22:55.160Z,2.28
2022-09-30T13:25:21.796Z,2.38
2022-09-30T13:28:14.557Z,2.97
2022-09-30T13:30:41.472Z,4.07
2022-09-30T13:33:30.190Z,4.63
2022-09-30T13:36:07.758Z,4.05
2022-09-30T13:38:40.452Z,2.78
2022-09-30T13:41:24.920Z,6.00
2022-09-30T13:44:17.675Z,4.50
2022-09-30T13:47:00.668Z,2.60
2022-09-30T13:49:45.764Z,2.47
2022-09-30T13:52:25.869Z,4.13
2022-09-30T13:57:27.645Z,3.00
2022-09-30T14:00:05.605Z,4.43
2022-09-30T14:03:09.746Z,3.50
2022-09-30T14:06:10.636Z,2.28
2022-09-30T14:09:13.678Z,2.97
2022-09-30T14:12:04.914Z,3.28
2022-09-30T14:14:55.859Z,4.45
2022-09-30T14:17:36.856Z,4.05
2022-09-30T14:20:29.390Z,4.70
2022-09-30T14:22:56.646Z,4.00
2022-09-30T14:25:23.604Z,3.38
2022-09-30T14:27:59.895Z,4.65
2022-09-30T14:30:27.912Z,4.35
2022-09-30T14:33:02.311Z,4.50
2022-09-30T14:35:31.405Z,7.57
2022-09-30T14:38:06.800Z,4.03
2022-09-30T14:40:36.182Z,7.15
2022-09-30T14:43:05.898Z,2.90
2022-09-30T14:45:36.576Z,3.17
2022-09-30T14:48:25.742Z,2.67
2022-09-30T14:51:05.636Z,2.33
2022-09-30T14:53:34.943Z,3.33
2022-09-30T14:56:04.841Z,2.90
2022-09-30T14:58:42.250Z,2.92
2022-09-30T15:01:17.642Z,4.47
2022-09-30T15:03:57.053Z,3.05
2022-09-30T15:06:27.713Z,5.10
2022-09-30T15:09:08.525Z,2.63
2022-09-30T15:11:39.531Z,4.40
2022-09-30T15:14:17.775Z,3.28
2022-09-30T15:16:53.027Z,6.07
2022-09-30T15:19:50.476Z,4.03
2022-09-30T15:22:19.412Z,5.80
2022-09-30T15:24:48.025Z,4.80
2022-09-30T15:27:21.660Z,11.82
2022-09-30T15:30:02.778Z,4.38
2022-09-30T15:32:33.484Z,5.97
2022-09-30T15:35:07.752Z,2.80
2022-09-30T15:37:34.724Z,3.15
2022-09-30T15:40:21.572Z,4.60
2022-09-30T15:42:59.933Z,7.95
2022-09-30T15:45:36.269Z,5.45
2022-09-30T15:48:22.595Z,2.13
2022-09-30T15:50:55.744Z,2.30
2022-09-30T15:53:46.299Z,4.80
2022-09-30T15:56:18.574Z,2.95
2022-09-30T15:59:07.819Z,3.10
2022-09-30T16:01:52.514Z,2.88
2022-09-30T16:04:19.119Z,3.25
2022-09-30T16:06:59.094Z,3.63
2022-09-30T16:09:33.201Z,4.68
2022-09-30T16:12:18.268Z,3.25
2022-09-30T16:14:54.717Z,3.55
2022-09-30T16:17:33.473Z,4.85
2022-09-30T16:20:08.361Z,4.55
2022-09-30T16:22:41.150Z,4.03
2022-09-30T16:25:10.831Z,5.63
2022-09-30T16:27:38.358Z,3.42
2022-09-30T16:30:06.643Z,6.88
2022-09-30T16:32:38.413Z,5.88
2022-09-30T16:35:06.322Z,3.05
2022-09-30T16:37:32.963Z,6.97
2022-09-30T16:40:10.378Z,4.45
2022-09-30T16:42:37.012Z,8.15
2022-09-30T16:45:04.542Z,7.53
2022-09-30T16:47:31.116Z,5.30
2022-09-30T16:49:58.804Z,8.95
2022-09-30T16:52:26.140Z,7.57
2022-09-30T16:54:52.723Z,7.07
2022-09-30T16:57:19.314Z,5.75
2022-09-30T16:59:45.966Z,5.93
2022-09-30T17:02:14.604Z,5.07
2022-09-30T17:04:41.338Z,5.10
2022-09-30T17:07:11.952Z,9.38
2022-09-30T17:09:39.566Z,7.20
2022-09-30T17:12:06.154Z,11.05
2022-09-30T17:14:33.326Z,6.25
2022-09-30T17:17:00.029Z,11.52
2022-09-30T17:19:30.043Z,8.80
2022-09-30T17:21:56.669Z,8.15
2022-09-30T17:24:23.312Z,8.48
2022-09-30T17:26:50.906Z,8.07
2022-09-30T17:29:31.891Z,6.63
2022-09-30T17:31:59.321Z,7.43
2022-09-30T17:34:27.904Z,7.07
2022-09-30T17:36:56.148Z,7.90
2022-09-30T17:39:22.993Z,6.85
2022-09-30T17:42:08.718Z,5.45
2022-09-30T17:44:36.021Z,8.60
2022-09-30T17:47:02.613Z,10.10
2022-09-30T17:49:33.979Z,8.60
2022-09-30T17:52:01.617Z,8.75
2022-09-30T17:54:29.058Z,8.35
2022-09-30T17:56:57.345Z,9.90
2022-09-30T17:59:25.956Z,12.30
2022-09-30T18:01:53.677Z,11.25
2022-09-30T18:04:21.397Z,10.85
2022-09-30T18:06:48.029Z,8.80
2022-09-30T18:09:15.059Z,10.65
2022-09-30T18:11:43.636Z,10.70
2022-09-30T18:14:12.058Z,12.50
2022-09-30T18:16:38.877Z,9.38
2022-09-30T18:19:07.323Z,13.02
2022-09-30T18:21:36.165Z,7.78
2022-09-30T18:24:04.498Z,8.23
2022-09-30T18:26:33.539Z,11.25
2022-09-30T18:29:02.589Z,12.07
2022-09-30T18:31:34.542Z,10.88
2022-09-30T18:34:02.018Z,8.73
2022-09-30T18:36:37.130Z,9.48
2022-09-30T18:39:04.078Z,8.60
2022-09-30T18:41:33.755Z,9.60
2022-09-30T18:44:02.927Z,8.65
2022-09-30T18:46:30.965Z,11.23
2022-09-30T18:48:58.093Z,12.45
2022-09-30T18:51:25.159Z,8.80
2022-09-30T18:53:57.857Z,12.77
2022-09-30T18:56:29.556Z,11.05
2022-09-30T18:58:56.214Z,8.25
2022-09-30T19:01:22.916Z,10.63
2022-09-30T19:03:49.683Z,11.88
2022-09-30T19:06:16.454Z,9.93
2022-09-30T19:08:43.605Z,10.43
2022-09-30T19:11:15.587Z,9.93
2022-09-30T19:13:44.065Z,8.90
2022-09-30T19:16:11.611Z,9.07
2022-09-30T19:18:40.997Z,9.90
2022-09-30T19:21:10.121Z,11.07
2022-09-30T19:23:37.534Z,10.95
2022-09-30T19:26:05.456Z,11.40
2022-09-30T19:28:33.145Z,9.73
2022-09-30T19:31:05.924Z,9.30
2022-09-30T19:33:34.931Z,18.88
2022-09-30T19:36:14.452Z,12.48
2022-09-30T19:38:43.916Z,10.10
2022-09-30T19:41:11.214Z,12.85
2022-09-30T19:43:40.702Z,9.70
2022-09-30T19:46:10.062Z,10.10
2022-09-30T19:48:37.169Z,8.37
2022-09-30T19:51:10.081Z,10.30
2022-09-30T19:53:42.051Z,12.75
2022-09-30T19:56:21.209Z,9.82
2022-09-30T19:58:50.959Z,10.73
2022-09-30T20:01:21.743Z,12.07
2022-09-30T20:03:49.056Z,11.88
2022-09-30T20:06:16.816Z,13.70
2022-09-30T20:08:45.526Z,10.77
2022-09-30T20:11:17.116Z,11.68
2022-09-30T20:13:43.732Z,13.55
2022-09-30T20:16:12.630Z,13.77
2022-09-30T20:18:40.737Z,12.68
2022-09-30T20:21:12.474Z,12.95
2022-09-30T20:23:39.529Z,11.93
2022-09-30T20:26:07.593Z,17.65
2022-09-30T20:28:34.902Z,13.82
2022-09-30T20:31:06.977Z,13.13
2022-09-30T20:33:33.764Z,12.82
2022-09-30T20:36:01.470Z,13.07
2022-09-30T20:38:28.049Z,16.52
2022-09-30T20:40:57.048Z,13.45
2022-09-30T20:43:27.975Z,16.55
2022-09-30T20:45:56.378Z,14.55
2022-09-30T20:48:23.113Z,16.00
2022-09-30T20:50:50.095Z,19.30
2022-09-30T20:53:17.420Z,15.23
2022-09-30T20:55:44.232Z,14.25
2022-09-30T20:58:12.623Z,13.25
2022-09-30T21:00:41.507Z,18.92
2022-09-30T21:03:09.834Z,14.40
2022-09-30T21:05:37.196Z,16.10
2022-09-30T21:08:04.661Z,13.52
2022-09-30T21:10:33.147Z,14.90
2022-09-30T21:13:01.197Z,15.43
2022-09-30T21:15:31.552Z,14.10
2022-09-30T21:17:58.221Z,16.58
2022-09-30T21:20:24.829Z,14.82
2022-09-30T21:22:53.799Z,15.07
2022-09-30T21:25:20.656Z,13.10
2022-09-30T21:27:48.745Z,12.10
2022-09-30T21:30:17.225Z,12.60
2022-09-30T21:32:45.135Z,12.30
2022-09-30T21:35:13.809Z,13.25
2022-09-30T21:37:41.412Z,12.45
2022-09-30T21:40:10.073Z,13.32
2022-09-30T21:42:37.726Z,19.75
2022-09-30T21:45:05.349Z,16.63
2022-09-30T21:47:32.016Z,15.23
2022-09-30T21:49:58.682Z,13.15
2022-09-30T21:52:28.557Z,12.73
2022-09-30T21:54:57.376Z,14.32
2022-09-30T21:57:24.014Z,12.68
2022-09-30T21:59:50.980Z,13.02
2022-09-30T22:02:17.622Z,15.07
2022-09-30T22:04:44.384Z,12.80
2022-09-30T22:07:10.970Z,15.80
2022-09-30T22:09:39.655Z,14.05
2022-09-30T22:12:08.831Z,15.40
2022-09-30T22:14:36.890Z,12.90
2022-09-30T22:17:08.109Z,11.38
2022-09-30T22:19:34.732Z,12.73
2022-09-30T22:22:01.787Z,14.77
2022-09-30T22:24:28.722Z,13.98
2022-09-30T22:26:57.345Z,13.52
2022-09-30T22:29:24.023Z,13.27
2022-09-30T22:31:50.764Z,15.45
2022-09-30T22:34:36.061Z,11.90
2022-09-30T22:37:21.571Z,15.13
2022-09-30T22:39:48.176Z,11.75
2022-09-30T22:42:14.814Z,13.10
2022-09-30T22:44:41.452Z,12.75
2022-09-30T22:47:11.035Z,14.98
2022-09-30T22:49:37.628Z,17.63
2022-09-30T22:52:04.292Z,12.20
2022-09-30T22:54:31.155Z,15.85
2022-09-30T22:56:59.360Z,13.32
2022-09-30T22:59:26.843Z,12.27
2022-09-30T23:01:53.730Z,14.73
2022-09-30T23:04:20.503Z,12.23
2022-09-30T23:06:48.842Z,15.23
2022-09-30T23:09:16.722Z,11.60
2022-09-30T23:11:44.091Z,12.77
2022-09-30T23:14:10.729Z,11.95
2022-09-30T23:16:37.455Z,11.70
2022-09-30T23:19:04.293Z,11.82
2022-09-30T23:21:32.163Z,12.98
2022-09-30T23:23:59.141Z,11.60
2022-09-30T23:26:28.409Z,13.98
2022-09-30T23:29:21.213Z,13.17
2022-09-30T23:31:48.288Z,14.00
2022-09-30T23:34:16.073Z,11.13
2022-09-30T23:36:42.832Z,12.38
2022-09-30T23:39:19.303Z,12.52
2022-09-30T23:41:47.711Z,14.07
2022-09-30T23:44:18.807Z,13.98
2022-09-30T23:47:05.441Z,11.90
2022-09-30T23:49:34.925Z,11.20
2022-09-30T23:52:12.894Z,12.88
2022-09-30T23:54:41.173Z,13.68
2022-09-30T23:57:08.336Z,15.13
2022-09-30T23:59:35.080Z,12.70
